createdAt,value
2023-05-04T00:02:01.298Z,0.90
2023-05-04T00:04:29.057Z,1.00
2023-05-04T00:06:56.294Z,0.80
2023-05-04T00:09:23.574Z,1.97
2023-05-04T00:11:50.887Z,3.27
2023-05-04T00:14:18.127Z,3.17
2023-05-04T00:16:45.528Z,3.03
2023-05-04T00:19:12.832Z,3.13
2023-05-04T00:21:40.289Z,2.87
2023-05-04T00:24:07.670Z,1.57
2023-05-04T00:26:35.199Z,1.00
2023-05-04T00:29:02.802Z,0.90
2023-05-04T00:31:30.132Z,1.00
2023-05-04T00:33:57.485Z,0.70
2023-05-04T00:36:24.833Z,2.30
2023-05-04T00:38:54.638Z,3.23
2023-05-04T00:41:22.990Z,4.30
2023-05-04T00:43:50.298Z,3.07
2023-05-04T00:46:18.074Z,3.23
2023-05-04T00:48:48.040Z,3.57
2023-05-04T00:51:17.411Z,3.60
2023-05-04T00:53:45.200Z,3.43
2023-05-04T00:56:12.851Z,3.63
2023-05-04T00:58:40.385Z,2.90
2023-05-04T01:01:08.534Z,1.30
2023-05-04T01:03:36.521Z,0.70
2023-05-04T01:06:36.560Z,1.07
2023-05-04T01:09:18.816Z,0.63
2023-05-04T01:12:10.323Z,4.80
2023-05-04T01:14:37.990Z,1.30
2023-05-04T01:17:07.168Z,0.90
2023-05-04T01:19:35.379Z,1.33
2023-05-04T01:22:03.625Z,0.87
2023-05-04T01:24:32.711Z,1.10
2023-05-04T01:27:36.660Z,0.67
2023-05-04T01:30:17.941Z,0.90
2023-05-04T01:32:46.561Z,4.00
2023-05-04T01:35:15.005Z,3.40
2023-05-04T01:37:42.722Z,2.70
2023-05-04T01:40:10.519Z,2.33
2023-05-04T01:42:37.994Z,1.37
2023-05-04T01:45:06.811Z,0.80
2023-05-04T01:47:36.555Z,1.03
2023-05-04T01:50:06.158Z,0.60
2023-05-04T01:52:33.886Z,1.30
2023-05-04T01:55:01.461Z,0.73
2023-05-04T01:57:28.694Z,1.20
2023-05-04T01:59:55.976Z,1.20
2023-05-04T02:02:23.751Z,3.33
2023-05-04T02:04:51.147Z,3.27
2023-05-04T02:07:18.397Z,3.90
2023-05-04T02:09:45.973Z,3.93
2023-05-04T02:12:14.018Z,4.77
2023-05-04T02:14:41.549Z,2.67
2023-05-04T02:17:09.116Z,1.30
2023-05-04T02:19:36.781Z,1.10
2023-05-04T02:22:04.464Z,0.70
2023-05-04T02:24:31.954Z,1.00
2023-05-04T02:26:59.319Z,0.90
2023-05-04T02:29:26.634Z,1.37
2023-05-04T02:31:54.010Z,2.27
2023-05-04T02:34:21.737Z,3.47
2023-05-04T02:36:49.021Z,3.67
2023-05-04T02:39:16.468Z,5.07
2023-05-04T02:41:43.780Z,3.90
2023-05-04T02:44:11.055Z,3.37
2023-05-04T02:46:38.269Z,1.57
2023-05-04T02:49:05.820Z,0.90
2023-05-04T02:51:33.585Z,1.07
2023-05-04T02:54:01.313Z,7.63
2023-05-04T02:56:28.764Z,1.20
2023-05-04T02:58:55.884Z,1.60
2023-05-04T03:01:23.361Z,3.30
2023-05-04T03:03:50.723Z,4.80
2023-05-04T03:06:18.033Z,3.93
2023-05-04T03:08:45.293Z,4.03
2023-05-04T03:11:12.848Z,2.63
2023-05-04T03:13:40.127Z,3.50
2023-05-04T03:16:07.900Z,1.30
2023-05-04T03:18:35.681Z,1.20
2023-05-04T03:21:04.908Z,0.90
2023-05-04T03:23:32.141Z,1.00
2023-05-04T03:25:59.339Z,0.73
2023-05-04T03:28:26.599Z,0.77
2023-05-04T03:30:53.892Z,2.60
2023-05-04T03:33:21.155Z,3.37
2023-05-04T03:35:48.351Z,3.50
2023-05-04T03:38:15.713Z,4.03
2023-05-04T03:40:43.403Z,4.43
2023-05-04T03:43:10.752Z,3.27
2023-05-04T03:45:38.089Z,1.57
2023-05-04T03:48:05.867Z,1.00
2023-05-04T03:50:33.736Z,0.90
2023-05-04T03:53:01.061Z,0.80
2023-05-04T03:55:28.422Z,0.90
2023-05-04T03:57:55.692Z,1.20
2023-05-04T04:00:23.599Z,3.37
2023-05-04T04:02:51.824Z,2.90
2023-05-04T04:05:19.222Z,3.10
2023-05-04T04:07:46.523Z,4.70
2023-05-04T04:10:13.958Z,4.50
2023-05-04T04:12:41.573Z,2.10
2023-05-04T04:15:09.328Z,2.40
2023-05-04T04:17:36.893Z,1.23
2023-05-04T04:20:05.476Z,0.80
2023-05-04T04:22:34.921Z,1.13
2023-05-04T04:25:02.256Z,0.90
2023-05-04T04:27:30.077Z,0.90
2023-05-04T04:29:58.034Z,0.90
2023-05-04T04:32:25.485Z,1.73
2023-05-04T04:34:52.926Z,3.33
2023-05-04T04:37:20.353Z,3.43
2023-05-04T04:39:47.796Z,3.43
2023-05-04T04:42:15.182Z,4.53
2023-05-04T04:44:42.451Z,2.40
2023-05-04T04:47:09.721Z,1.70
2023-05-04T04:49:37.058Z,1.40
2023-05-04T04:52:05.365Z,0.83
2023-05-04T04:54:32.882Z,2.23
2023-05-04T04:57:00.216Z,0.83
2023-05-04T04:59:27.440Z,2.63
2023-05-04T05:01:55.057Z,2.20
2023-05-04T05:04:22.922Z,3.90
2023-05-04T05:06:51.767Z,3.53
2023-05-04T05:09:19.082Z,3.30
2023-05-04T05:11:46.563Z,4.97
2023-05-04T05:14:13.920Z,3.77
2023-05-04T05:16:41.185Z,3.17
2023-05-04T05:19:08.420Z,1.57
2023-05-04T05:21:36.132Z,0.90
2023-05-04T05:24:04.792Z,1.00
2023-05-04T05:26:32.479Z,0.80
2023-05-04T05:28:59.781Z,0.80
2023-05-04T05:31:28.033Z,0.90
2023-05-04T05:33:55.615Z,1.43
2023-05-04T05:36:22.911Z,3.37
2023-05-04T05:38:50.485Z,3.53
2023-05-04T05:41:17.814Z,3.53
2023-05-04T05:43:45.344Z,4.30
2023-05-04T05:46:12.758Z,2.80
2023-05-04T05:48:39.957Z,2.37
2023-05-04T05:51:07.651Z,1.67
2023-05-04T05:53:35.774Z,1.20
2023-05-04T05:56:03.174Z,0.80
2023-05-04T05:58:30.403Z,0.70
2023-05-04T06:00:57.866Z,3.43
2023-05-04T06:03:25.325Z,1.90
2023-05-04T06:05:52.713Z,3.33
2023-05-04T06:08:20.066Z,4.30
2023-05-04T06:10:47.334Z,3.27
2023-05-04T06:13:14.622Z,2.30
2023-05-04T06:15:41.977Z,1.80
2023-05-04T06:18:09.384Z,1.67
2023-05-04T06:20:37.158Z,0.97
2023-05-04T06:23:05.016Z,0.67
2023-05-04T06:25:32.662Z,0.70
2023-05-04T06:28:00.146Z,0.70
2023-05-04T06:30:27.655Z,1.00
2023-05-04T06:32:54.935Z,1.37
2023-05-04T06:35:22.862Z,2.73
2023-05-04T06:40:18.652Z,2.90
2023-05-04T06:42:46.569Z,3.03
2023-05-04T06:45:14.218Z,4.43
2023-05-04T06:47:42.189Z,3.00
2023-05-04T06:50:10.937Z,1.07
2023-05-04T06:52:45.142Z,1.80
2023-05-04T06:55:14.043Z,1.43
2023-05-04T06:57:41.318Z,2.33
2023-05-04T07:00:09.232Z,1.20
2023-05-04T07:02:39.293Z,1.03
2023-05-04T07:05:07.056Z,1.20
2023-05-04T07:07:35.692Z,0.97
2023-05-04T07:10:04.427Z,0.70
2023-05-04T07:12:31.972Z,0.70
2023-05-04T07:14:59.246Z,0.70
2023-05-04T07:17:26.971Z,0.90
2023-05-04T07:19:54.526Z,1.57
2023-05-04T07:22:22.377Z,2.33
2023-05-04T07:24:49.692Z,3.80
2023-05-04T07:27:17.342Z,2.60
2023-05-04T07:29:45.003Z,2.40
2023-05-04T07:32:12.270Z,1.63
2023-05-04T07:34:45.770Z,1.33
2023-05-04T07:37:14.446Z,2.53
2023-05-04T07:39:41.882Z,2.10
2023-05-04T07:42:09.867Z,1.43
2023-05-04T07:44:37.224Z,1.03
2023-05-04T07:47:04.884Z,0.50
2023-05-04T07:49:32.379Z,0.70
2023-05-04T07:52:00.157Z,0.60
2023-05-04T07:54:28.003Z,0.60
2023-05-04T07:56:55.345Z,1.07
2023-05-04T07:59:23.060Z,2.10
2023-05-04T08:01:50.292Z,2.30
2023-05-04T08:04:17.601Z,2.83
2023-05-04T08:06:45.199Z,4.13
2023-05-04T08:09:12.750Z,1.23
2023-05-04T08:11:40.613Z,1.40
2023-05-04T08:14:08.520Z,0.80
2023-05-04T08:16:37.473Z,0.50
2023-05-04T08:19:06.235Z,0.60
2023-05-04T08:21:33.871Z,1.50
2023-05-04T08:24:01.184Z,0.50
2023-05-04T08:26:28.925Z,0.87
2023-05-04T08:29:08.583Z,0.90
2023-05-04T08:31:36.903Z,1.97
2023-05-04T08:34:05.091Z,0.60
2023-05-04T08:36:32.626Z,0.60
2023-05-04T08:38:59.947Z,0.60
2023-05-04T08:41:27.296Z,0.57
2023-05-04T08:43:54.909Z,1.37
2023-05-04T08:46:23.261Z,1.80
2023-05-04T08:48:50.764Z,2.20
2023-05-04T08:51:18.650Z,1.83
2023-05-04T08:53:46.538Z,1.20
2023-05-04T08:56:14.767Z,2.80
2023-05-04T08:58:50.328Z,2.00
2023-05-04T09:01:19.447Z,1.53
2023-05-04T09:03:48.087Z,1.73
2023-05-04T09:06:15.789Z,2.23
2023-05-04T09:08:43.293Z,1.30
2023-05-04T09:11:10.593Z,1.80
2023-05-04T09:13:38.835Z,0.90
2023-05-04T09:16:08.217Z,0.60
2023-05-04T09:18:41.509Z,0.70
2023-05-04T09:21:09.898Z,0.80
2023-05-04T09:23:47.729Z,0.70
2023-05-04T09:26:15.524Z,2.33
2023-05-04T09:28:43.875Z,1.93
2023-05-04T09:31:12.270Z,1.40
2023-05-04T09:33:39.526Z,0.77
2023-05-04T09:36:15.286Z,0.70
2023-05-04T09:38:42.725Z,1.37
2023-05-04T09:41:10.481Z,0.80
2023-05-04T09:43:42.437Z,0.77
2023-05-04T09:46:17.847Z,0.90
2023-05-04T09:48:52.662Z,2.10
2023-05-04T09:51:22.640Z,2.60
2023-05-04T09:53:51.143Z,1.50
2023-05-04T09:56:27.274Z,1.37
2023-05-04T09:59:00.261Z,1.33
2023-05-04T10:01:31.887Z,0.50
2023-05-04T10:03:59.587Z,0.60
2023-05-04T10:06:29.714Z,0.57
2023-05-04T10:08:57.125Z,0.50
2023-05-04T10:11:26.345Z,1.10
2023-05-04T10:13:57.131Z,1.30
2023-05-04T10:16:33.930Z,1.03
2023-05-04T10:19:23.316Z,0.50
2023-05-04T10:22:14.975Z,1.23
2023-05-04T10:25:15.148Z,1.00
2023-05-04T10:28:02.518Z,0.80
2023-05-04T10:30:30.230Z,0.50
2023-05-04T10:32:59.192Z,1.37
2023-05-04T10:35:27.899Z,0.77
2023-05-04T10:37:56.613Z,0.83
2023-05-04T10:40:40.479Z,1.03
2023-05-04T10:43:08.975Z,0.67
2023-05-04T10:45:40.435Z,0.50
2023-05-04T10:48:09.158Z,0.70
2023-05-04T10:50:49.528Z,0.50
2023-05-04T10:53:18.267Z,1.23
2023-05-04T10:55:47.221Z,1.43
2023-05-04T10:58:17.211Z,1.63
2023-05-04T11:00:46.892Z,1.70
2023-05-04T11:03:14.535Z,1.73
2023-05-04T11:05:54.849Z,1.10
2023-05-04T11:08:26.951Z,1.43
2023-05-04T11:11:05.230Z,1.30
2023-05-04T11:13:35.522Z,0.50
2023-05-04T11:16:03.842Z,0.50
2023-05-04T11:18:32.993Z,1.17
2023-05-04T11:21:00.896Z,0.50
2023-05-04T11:23:28.649Z,0.50
2023-05-04T11:25:56.190Z,0.80
2023-05-04T11:28:52.782Z,1.27
2023-05-04T11:31:21.677Z,1.33
2023-05-04T11:33:55.007Z,1.37
2023-05-04T11:36:23.088Z,1.37
2023-05-04T11:38:51.237Z,1.43
2023-05-04T11:41:18.553Z,1.23
2023-05-04T11:43:46.767Z,1.33
2023-05-04T11:46:14.884Z,2.50
2023-05-04T11:48:42.404Z,1.13
2023-05-04T11:51:09.911Z,0.70
2023-05-04T11:53:38.778Z,0.53
2023-05-04T11:56:08.622Z,0.77
2023-05-04T11:58:36.860Z,0.50
2023-05-04T12:01:04.891Z,0.50
2023-05-04T12:03:53.067Z,0.50
2023-05-04T12:06:34.637Z,1.17
2023-05-04T12:09:05.515Z,0.50
2023-05-04T12:11:33.691Z,0.50
2023-05-04T12:14:10.555Z,0.50
2023-05-04T12:16:39.141Z,0.70
2023-05-04T12:19:13.622Z,0.50
2023-05-04T12:21:54.456Z,1.70
2023-05-04T12:24:23.287Z,0.93
2023-05-04T12:26:50.947Z,1.13
2023-05-04T12:29:18.647Z,1.10
2023-05-04T12:31:46.330Z,1.37
2023-05-04T12:34:14.016Z,1.10
2023-05-04T12:36:41.929Z,0.97
2023-05-04T12:39:09.169Z,0.60
2023-05-04T12:41:36.611Z,0.50
2023-05-04T12:44:04.417Z,0.50
2023-05-04T12:46:32.097Z,0.50
2023-05-04T12:48:59.510Z,0.50
2023-05-04T12:51:27.413Z,0.60
2023-05-04T12:53:59.156Z,1.00
2023-05-04T12:56:26.497Z,0.67
2023-05-04T12:58:54.300Z,1.07
2023-05-04T13:01:22.360Z,1.23
2023-05-04T13:03:50.007Z,1.13
2023-05-04T13:06:17.347Z,1.23
2023-05-04T13:08:44.842Z,1.13
2023-05-04T13:11:12.039Z,0.80
2023-05-04T13:13:39.487Z,0.60
2023-05-04T13:16:07.634Z,0.40
2023-05-04T13:18:35.254Z,0.50
2023-05-04T13:21:02.505Z,0.50
2023-05-04T13:23:30.987Z,0.50
2023-05-04T13:25:58.419Z,0.60
2023-05-04T13:28:26.310Z,0.70
2023-05-04T13:30:53.569Z,1.17
2023-05-04T13:33:29.650Z,1.07
2023-05-04T13:35:58.995Z,0.50
2023-05-04T13:38:27.342Z,0.60
2023-05-04T13:40:57.633Z,0.80
2023-05-04T13:43:25.192Z,0.80
2023-05-04T13:45:52.984Z,0.97
2023-05-04T13:48:20.611Z,1.07
2023-05-04T13:50:47.964Z,0.90
2023-05-04T13:53:15.239Z,1.00
2023-05-04T13:55:42.559Z,0.80
2023-05-04T13:58:10.190Z,0.60
2023-05-04T14:00:38.396Z,0.50
2023-05-04T14:03:06.257Z,0.50
2023-05-04T14:05:35.748Z,0.50
2023-05-04T14:08:03.341Z,0.50
2023-05-04T14:10:30.722Z,0.47
2023-05-04T14:12:58.104Z,0.50
2023-05-04T14:15:28.103Z,0.70
2023-05-04T14:17:55.754Z,0.80
2023-05-04T14:20:23.142Z,0.90
2023-05-04T14:22:50.609Z,0.90
2023-05-04T14:25:17.963Z,3.50
2023-05-04T14:27:45.282Z,0.83
2023-05-04T14:30:13.119Z,0.90
2023-05-04T14:32:41.390Z,0.77
2023-05-04T14:35:10.973Z,0.57
2023-05-04T14:37:40.136Z,0.60
2023-05-04T14:40:09.257Z,0.70
2023-05-04T14:42:37.434Z,0.50
2023-05-04T14:45:06.755Z,0.50
2023-05-04T14:47:34.877Z,0.50
2023-05-04T14:50:02.582Z,0.50
2023-05-04T14:52:30.053Z,0.60
2023-05-04T14:54:58.986Z,0.60
2023-05-04T14:57:26.210Z,0.60
2023-05-04T14:59:53.483Z,0.80
2023-05-04T15:02:21.181Z,1.03
2023-05-04T15:04:48.970Z,1.03
2023-05-04T15:07:18.414Z,0.90
2023-05-04T15:09:46.610Z,0.73
2023-05-04T15:12:14.174Z,0.90
2023-05-04T15:14:41.373Z,0.77
2023-05-04T15:17:08.738Z,0.70
2023-05-04T15:19:39.926Z,0.50
2023-05-04T15:22:07.609Z,0.50
2023-05-04T15:24:35.817Z,0.50
2023-05-04T15:27:04.265Z,0.67
2023-05-04T15:29:31.720Z,0.50
2023-05-04T15:31:59.193Z,0.50
2023-05-04T15:34:26.624Z,0.77
2023-05-04T15:36:55.203Z,0.70
2023-05-04T15:39:22.901Z,0.70
2023-05-04T15:41:50.276Z,0.80
2023-05-04T15:44:18.149Z,0.90
2023-05-04T15:46:46.029Z,0.83
2023-05-04T15:49:13.725Z,0.70
2023-05-04T15:51:42.019Z,0.67
2023-05-04T15:54:09.747Z,0.63
2023-05-04T15:56:37.392Z,0.50
2023-05-04T15:59:09.875Z,0.50
2023-05-04T16:01:39.255Z,0.50
2023-05-04T16:04:06.775Z,0.60
2023-05-04T16:06:34.160Z,0.50
2023-05-04T16:09:01.545Z,0.50
2023-05-04T16:11:30.639Z,0.70
2023-05-04T16:13:57.898Z,0.50
2023-05-04T16:16:25.348Z,0.90
2023-05-04T16:18:53.440Z,0.70
2023-05-04T16:21:21.503Z,0.83
2023-05-04T16:23:48.700Z,2.20
2023-05-04T16:26:16.050Z,0.77
2023-05-04T16:28:45.518Z,0.60
2023-05-04T16:31:13.258Z,1.43
2023-05-04T16:33:47.312Z,1.00
2023-05-04T16:36:15.275Z,1.00
2023-05-04T16:38:42.971Z,0.60
2023-05-04T16:41:10.360Z,0.53
2023-05-04T16:43:37.797Z,0.60
2023-05-04T16:46:05.446Z,0.60
2023-05-04T16:48:33.510Z,0.60
2023-05-04T16:51:00.953Z,0.50
2023-05-04T16:53:28.165Z,0.50
2023-05-04T16:55:55.477Z,0.67
2023-05-04T16:58:22.758Z,0.80
2023-05-04T17:00:49.996Z,0.87
2023-05-04T17:03:17.531Z,0.97
2023-05-04T17:05:44.969Z,0.77
2023-05-04T17:08:13.218Z,0.63
2023-05-04T17:10:41.383Z,0.53
2023-05-04T17:13:08.947Z,0.70
2023-05-04T17:15:36.456Z,0.50
2023-05-04T17:18:04.137Z,0.60
2023-05-04T17:20:32.321Z,0.50
2023-05-04T17:23:00.278Z,1.07
2023-05-04T17:25:27.789Z,0.50
2023-05-04T17:27:55.419Z,0.77
2023-05-04T17:30:22.969Z,0.90
2023-05-04T17:32:50.426Z,1.00
2023-05-04T17:35:25.374Z,1.03
2023-05-04T17:37:58.905Z,0.80
2023-05-04T17:40:28.123Z,0.57
2023-05-04T17:42:56.212Z,0.60
2023-05-04T17:45:23.419Z,0.80
2023-05-04T17:47:54.010Z,0.80
2023-05-04T17:50:21.818Z,1.10
2023-05-04T17:52:53.564Z,0.70
2023-05-04T17:55:20.806Z,0.83
2023-05-04T17:57:47.943Z,0.90
2023-05-04T18:00:15.729Z,0.90
2023-05-04T18:02:43.266Z,0.70
2023-05-04T18:05:10.680Z,0.63
2023-05-04T18:07:38.736Z,0.60
2023-05-04T18:10:06.999Z,0.50
2023-05-04T18:12:35.641Z,0.50
2023-05-04T18:15:08.427Z,0.50
2023-05-04T18:17:38.254Z,0.60
2023-05-04T18:20:08.716Z,0.50
2023-05-04T18:22:36.964Z,0.60
2023-05-04T18:25:05.068Z,0.50
2023-05-04T18:27:34.004Z,0.73
2023-05-04T18:30:02.496Z,0.50
2023-05-04T18:32:30.300Z,0.50
2023-05-04T18:34:58.245Z,0.70
2023-05-04T18:37:25.917Z,1.13
2023-05-04T18:39:53.260Z,1.23
2023-05-04T18:42:20.614Z,1.37
2023-05-04T18:44:47.957Z,1.53
2023-05-04T18:47:15.209Z,1.80
2023-05-04T18:49:44.235Z,1.17
2023-05-04T18:52:11.475Z,1.27
2023-05-04T18:54:38.912Z,0.77
2023-05-04T18:57:07.274Z,0.50
2023-05-04T18:59:35.422Z,0.40
2023-05-04T19:02:02.772Z,0.50
2023-05-04T19:04:30.178Z,0.50
2023-05-04T19:07:00.386Z,0.70
2023-05-04T19:09:27.742Z,0.80
2023-05-04T19:11:55.045Z,1.17
2023-05-04T19:14:22.235Z,1.73
2023-05-04T19:16:49.472Z,2.90
2023-05-04T19:19:16.759Z,1.67
2023-05-04T19:21:44.216Z,1.23
2023-05-04T19:24:11.414Z,1.43
2023-05-04T19:26:39.299Z,1.10
2023-05-04T19:29:06.844Z,2.80
2023-05-04T19:31:34.315Z,0.53
2023-05-04T19:34:02.389Z,0.50
2023-05-04T19:36:29.616Z,0.50
2023-05-04T19:38:57.277Z,0.90
2023-05-04T19:41:24.475Z,1.67
2023-05-04T19:43:51.743Z,1.17
2023-05-04T19:46:19.196Z,1.47
2023-05-04T19:48:46.463Z,1.43
2023-05-04T19:51:14.526Z,1.00
2023-05-04T19:53:41.823Z,1.57
2023-05-04T19:56:09.218Z,0.77
2023-05-04T19:58:36.737Z,0.50
2023-05-04T20:01:04.211Z,0.60
2023-05-04T20:03:31.655Z,0.60
2023-05-04T20:05:58.871Z,0.50
2023-05-04T20:08:27.179Z,1.00
2023-05-04T20:10:54.383Z,1.30
2023-05-04T20:13:21.926Z,1.63
2023-05-04T20:15:49.360Z,1.93
2023-05-04T20:18:17.651Z,2.10
2023-05-04T20:20:45.036Z,2.13
2023-05-04T20:23:12.537Z,1.23
2023-05-04T20:25:39.895Z,0.90
2023-05-04T20:28:07.490Z,0.50
2023-05-04T20:30:35.085Z,0.60
2023-05-04T20:33:02.379Z,0.50
2023-05-04T20:35:29.688Z,0.70
2023-05-04T20:37:58.235Z,0.70
2023-05-04T20:40:25.543Z,1.20
2023-05-04T20:42:52.910Z,1.63
2023-05-04T20:45:20.546Z,1.70
2023-05-04T20:47:48.816Z,2.33
2023-05-04T20:50:18.024Z,2.10
2023-05-04T20:52:46.038Z,2.13
2023-05-04T20:55:13.382Z,1.37
2023-05-04T20:57:41.692Z,0.90
2023-05-04T21:00:09.930Z,0.87
2023-05-04T21:02:37.496Z,0.73
2023-05-04T21:05:06.688Z,0.50
2023-05-04T21:07:34.769Z,0.60
2023-05-04T21:10:02.065Z,0.60
2023-05-04T21:12:29.361Z,0.70
2023-05-04T21:14:56.909Z,0.93
2023-05-04T21:17:25.903Z,1.83
2023-05-04T21:19:53.299Z,1.60
2023-05-04T21:22:20.482Z,1.83
2023-05-04T21:24:47.678Z,2.00
2023-05-04T21:27:14.873Z,2.43
2023-05-04T21:29:42.055Z,2.27
2023-05-04T21:32:09.565Z,0.87
2023-05-04T21:34:38.574Z,0.60
2023-05-04T21:37:06.042Z,0.50
2023-05-04T21:39:33.515Z,0.80
2023-05-04T21:42:01.825Z,0.53
2023-05-04T21:44:29.115Z,0.70
2023-05-04T21:46:56.344Z,1.10
2023-05-04T21:49:24.138Z,2.10
2023-05-04T21:51:51.540Z,1.77
2023-05-04T21:54:18.911Z,1.90
2023-05-04T21:56:46.635Z,1.97
2023-05-04T21:59:14.227Z,1.33
2023-05-04T22:01:42.651Z,1.53
2023-05-04T22:04:10.033Z,0.90
2023-05-04T22:06:38.025Z,0.50
2023-05-04T22:09:05.648Z,0.60
2023-05-04T22:11:32.891Z,0.60
2023-05-04T22:14:00.385Z,0.70
2023-05-04T22:16:27.861Z,1.23
2023-05-04T22:18:55.402Z,1.80
2023-05-04T22:21:22.517Z,2.30
2023-05-04T22:23:49.720Z,8.70
2023-05-04T22:26:17.680Z,2.40
2023-05-04T22:28:44.897Z,2.03
2023-05-04T22:31:12.341Z,2.17
2023-05-04T22:33:39.580Z,0.87
2023-05-04T22:36:07.797Z,0.70
2023-05-04T22:38:35.348Z,0.70
2023-05-04T22:41:02.840Z,0.53
2023-05-04T22:43:30.258Z,0.80
2023-05-04T22:45:57.642Z,0.90
2023-05-04T22:48:25.039Z,1.70
2023-05-04T22:50:52.521Z,1.97
2023-05-04T22:53:19.719Z,6.53
2023-05-04T22:55:48.056Z,2.30
2023-05-04T22:58:15.553Z,3.17
2023-05-04T23:00:43.572Z,1.60
2023-05-04T23:03:10.986Z,1.07
2023-05-04T23:05:38.622Z,0.87
2023-05-04T23:08:07.286Z,0.60
2023-05-04T23:10:36.050Z,0.80
2023-05-04T23:13:04.689Z,0.60
2023-05-04T23:15:33.138Z,0.70
2023-05-04T23:18:00.762Z,0.50
2023-05-04T23:20:28.173Z,1.00
2023-05-04T23:22:55.565Z,1.77
2023-05-04T23:25:23.070Z,2.10
2023-05-04T23:27:50.474Z,1.90
2023-05-04T23:30:17.869Z,1.90
2023-05-04T23:32:45.368Z,2.77
2023-05-04T23:35:12.887Z,2.40
2023-05-04T23:37:40.161Z,1.07
2023-05-04T23:40:09.358Z,0.60
2023-05-04T23:42:38.025Z,2.17
2023-05-04T23:45:06.733Z,0.60
2023-05-04T23:47:34.208Z,0.70
2023-05-04T23:50:01.749Z,0.63
2023-05-04T23:52:29.493Z,0.60
2023-05-04T23:54:56.734Z,1.33
2023-05-04T23:57:24.273Z,2.20
2023-05-04T23:59:53.372Z,1.90
